sensor_id;sensor_type;location;lat;lon;timestamp;pressure;altitude;pressure_sealevel;temperature;humidity
4858;BME280;58975;51.978;8.472;2023-03-14T00:01:16;97779.34;;;10.37;100.00
4858;BME280;58975;51.978;8.472;2023-03-14T00:06:13;97796.59;;;10.41;100.00
4858;BME280;58975;51.978;8.472;2023-03-14T00:11:16;97824.75;;;10.35;100.00
4858;BME280;58975;51.978;8.472;2023-03-14T00:16:13;97836.59;;;10.33;100.00
4858;BME280;58975;51.978;8.472;2023-03-14T00:21:11;97824.28;;;10.32;100.00
4858;BME280;58975;51.978;8.472;2023-03-14T00:26:12;97817.78;;;10.20;100.00
4858;BME280;58975;51.978;8.472;2023-03-14T00:31:12;97827.56;;;10.05;100.00
4858;BME280;58975;51.978;8.472;2023-03-14T00:36:12;97831.88;;;9.91;100.00
4858;BME280;58975;51.978;8.472;2023-03-14T00:41:11;97818.56;;;9.91;100.00
4858;BME280;58975;51.978;8.472;2023-03-14T00:46:08;97806.66;;;10.02;100.00
4858;BME280;58975;51.978;8.472;2023-03-14T00:51:07;97786.69;;;10.06;100.00
4858;BME280;58975;51.978;8.472;2023-03-14T00:56:09;97786.75;;;10.12;100.00
4858;BME280;58975;51.978;8.472;2023-03-14T01:01:14;97796.50;;;10.20;100.00
4858;BME280;58975;51.978;8.472;2023-03-14T01:06:16;97806.59;;;10.24;100.00
4858;BME280;58975;51.978;8.472;2023-03-14T01:11:18;97805.75;;;10.24;100.00
4858;BME280;58975;51.978;8.472;2023-03-14T01:16:16;97790.63;;;10.24;100.00
4858;BME280;58975;51.978;8.472;2023-03-14T01:21:19;97779.53;;;10.21;100.00
4858;BME280;58975;51.978;8.472;2023-03-14T01:26:19;97770.09;;;10.33;100.00
4858;BME280;58975;51.978;8.472;2023-03-14T01:31:16;97748.97;;;10.31;100.00
4858;BME280;58975;51.978;8.472;2023-03-14T01:36:13;97733.69;;;10.33;100.00
4858;BME280;58975;51.978;8.472;2023-03-14T01:41:23;97759.72;;;10.38;100.00
4858;BME280;58975;51.978;8.472;2023-03-14T01:46:43;97742.88;;;10.31;100.00
4858;BME280;58975;51.978;8.472;2023-03-14T01:51:47;97746.81;;;10.35;100.00
4858;BME280;58975;51.978;8.472;2023-03-14T01:56:51;97745.78;;;10.36;100.00
4858;BME280;58975;51.978;8.472;2023-03-14T02:01:50;97739.81;;;10.34;100.00
4858;BME280;58975;51.978;8.472;2023-03-14T02:06:49;97730.47;;;10.38;100.00
4858;BME280;58975;51.978;8.472;2023-03-14T02:11:46;97724.09;;;10.39;100.00
4858;BME280;58975;51.978;8.472;2023-03-14T02:16:42;97721.22;;;10.34;100.00
4858;BME280;58975;51.978;8.472;2023-03-14T02:21:49;97718.13;;;10.52;100.00
4858;BME280;58975;51.978;8.472;2023-03-14T02:32:01;97795.53;;;8.55;100.00
4858;BME280;58975;51.978;8.472;2023-03-14T02:36:58;97797.31;;;8.24;100.00
4858;BME280;58975;51.978;8.472;2023-03-14T02:41:54;97779.47;;;8.09;100.00
4858;BME280;58975;51.978;8.472;2023-03-14T02:46:51;97777.81;;;8.08;100.00
4858;BME280;58975;51.978;8.472;2023-03-14T02:51:47;97763.09;;;8.06;100.00
4858;BME280;58975;51.978;8.472;2023-03-14T02:56:44;97770.91;;;8.07;100.00
4858;BME280;58975;51.978;8.472;2023-03-14T03:01:40;97766.88;;;8.12;100.00
4858;BME280;58975;51.978;8.472;2023-03-14T03:06:37;97773.22;;;8.02;100.00
4858;BME280;58975;51.978;8.472;2023-03-14T03:11:33;97764.63;;;7.92;100.00
4858;BME280;58975;51.978;8.472;2023-03-14T03:16:29;97766.97;;;7.95;100.00
4858;BME280;58975;51.978;8.472;2023-03-14T03:21:26;97760.34;;;7.91;100.00
4858;BME280;58975;51.978;8.472;2023-03-14T03:26:23;97759.34;;;7.84;100.00
4858;BME280;58975;51.978;8.472;2023-03-14T03:31:19;97762.50;;;7.88;100.00
4858;BME280;58975;51.978;8.472;2023-03-14T03:36:20;97746.09;;;7.84;100.00
4858;BME280;58975;51.978;8.472;2023-03-14T03:41:17;97743.97;;;7.88;100.00
4858;BME280;58975;51.978;8.472;2023-03-14T03:46:13;97749.09;;;7.81;100.00
4858;BME280;58975;51.978;8.472;2023-03-14T03:51:16;97751.44;;;7.76;100.00
4858;BME280;58975;51.978;8.472;2023-03-14T03:56:12;97741.81;;;7.83;100.00
4858;BME280;58975;51.978;8.472;2023-03-14T04:01:10;97747.94;;;7.84;100.00
4858;BME280;58975;51.978;8.472;2023-03-14T04:06:12;97733.38;;;7.88;100.00
4858;BME280;58975;51.978;8.472;2023-03-14T04:11:09;97736.34;;;7.77;100.00
4858;BME280;58975;51.978;8.472;2023-03-14T04:16:14;97738.00;;;7.86;100.00
4858;BME280;58975;51.978;8.472;2023-03-14T04:21:11;97742.47;;;7.85;100.00
4858;BME280;58975;51.978;8.472;2023-03-14T04:26:08;97736.69;;;7.74;100.00
4858;BME280;58975;51.978;8.472;2023-03-14T04:31:09;97731.75;;;7.71;100.00
4858;BME280;58975;51.978;8.472;2023-03-14T04:36:07;97723.47;;;7.66;100.00
4858;BME280;58975;51.978;8.472;2023-03-14T04:41:04;97710.91;;;7.68;100.00
4858;BME280;58975;51.978;8.472;2023-03-14T04:46:01;97703.34;;;7.56;100.00
4858;BME280;58975;51.978;8.472;2023-03-14T04:50:58;97710.47;;;7.48;100.00
4858;BME280;58975;51.978;8.472;2023-03-14T04:55:55;97692.56;;;7.50;100.00
4858;BME280;58975;51.978;8.472;2023-03-14T05:00:51;97683.16;;;7.47;100.00
4858;BME280;58975;51.978;8.472;2023-03-14T05:05:48;97686.25;;;7.59;100.00
4858;BME280;58975;51.978;8.472;2023-03-14T05:10:44;97675.66;;;7.59;100.00
4858;BME280;58975;51.978;8.472;2023-03-14T05:15:41;97680.28;;;7.65;100.00
4858;BME280;58975;51.978;8.472;2023-03-14T05:20:37;97672.78;;;7.77;100.00
4858;BME280;58975;51.978;8.472;2023-03-14T05:25:33;97674.44;;;7.78;100.00
4858;BME280;58975;51.978;8.472;2023-03-14T05:30:30;97663.31;;;7.82;100.00
4858;BME280;58975;51.978;8.472;2023-03-14T05:35:28;97655.84;;;7.86;100.00
4858;BME280;58975;51.978;8.472;2023-03-14T05:40:24;97655.03;;;7.85;100.00
4858;BME280;58975;51.978;8.472;2023-03-14T05:45:21;97652.72;;;7.82;100.00
4858;BME280;58975;51.978;8.472;2023-03-14T05:50:17;97661.63;;;7.89;100.00
4858;BME280;58975;51.978;8.472;2023-03-14T05:55:14;97640.75;;;7.94;100.00
4858;BME280;58975;51.978;8.472;2023-03-14T06:00:10;97659.25;;;8.02;100.00
4858;BME280;58975;51.978;8.472;2023-03-14T06:05:07;97653.34;;;7.92;100.00
4858;BME280;58975;51.978;8.472;2023-03-14T06:10:05;97647.91;;;7.86;100.00
4858;BME280;58975;51.978;8.472;2023-03-14T06:15:02;97646.75;;;7.80;100.00
4858;BME280;58975;51.978;8.472;2023-03-14T06:19:58;97658.06;;;7.74;100.00
4858;BME280;58975;51.978;8.472;2023-03-14T06:24:55;97665.03;;;7.75;100.00
4858;BME280;58975;51.978;8.472;2023-03-14T06:29:51;97676.63;;;7.66;100.00
4858;BME280;58975;51.978;8.472;2023-03-14T06:34:47;97668.09;;;7.48;100.00
4858;BME280;58975;51.978;8.472;2023-03-14T06:39:44;97656.38;;;7.34;100.00
4858;BME280;58975;51.978;8.472;2023-03-14T06:44:40;97664.50;;;7.33;100.00
4858;BME280;58975;51.978;8.472;2023-03-14T06:49:37;97669.09;;;7.39;100.00
4858;BME280;58975;51.978;8.472;2023-03-14T06:54:33;97669.81;;;7.33;100.00
4858;BME280;58975;51.978;8.472;2023-03-14T06:59:30;97685.34;;;7.36;100.00
4858;BME280;58975;51.978;8.472;2023-03-14T07:04:26;97688.31;;;7.41;100.00
4858;BME280;58975;51.978;8.472;2023-03-14T07:09:23;97682.81;;;7.50;100.00
4858;BME280;58975;51.978;8.472;2023-03-14T07:14:19;97686.81;;;7.38;100.00
4858;BME280;58975;51.978;8.472;2023-03-14T07:19:17;97696.28;;;7.33;100.00
4858;BME280;58975;51.978;8.472;2023-03-14T07:24:13;97684.84;;;7.40;100.00
4858;BME280;58975;51.978;8.472;2023-03-14T07:29:10;97699.03;;;7.47;100.00
4858;BME280;58975;51.978;8.472;2023-03-14T07:34:06;97694.38;;;7.57;100.00
4858;BME280;58975;51.978;8.472;2023-03-14T07:39:02;97708.06;;;7.69;100.00
4858;BME280;58975;51.978;8.472;2023-03-14T07:44:00;97697.78;;;7.74;100.00
4858;BME280;58975;51.978;8.472;2023-03-14T07:48:56;97703.56;;;7.78;100.00
4858;BME280;58975;51.978;8.472;2023-03-14T07:53:53;97705.88;;;7.81;100.00
4858;BME280;58975;51.978;8.472;2023-03-14T07:58:49;97723.72;;;7.95;100.00
4858;BME280;58975;51.978;8.472;2023-03-14T08:03:45;97715.59;;;7.96;100.00
4858;BME280;58975;51.978;8.472;2023-03-14T08:08:42;97714.09;;;8.02;100.00
4858;BME280;58975;51.978;8.472;2023-03-14T08:13:38;97708.31;;;7.98;100.00
4858;BME280;58975;51.978;8.472;2023-03-14T08:18:35;97721.69;;;8.05;100.00
4858;BME280;58975;51.978;8.472;2023-03-14T08:23:32;97723.19;;;8.07;100.00
4858;BME280;58975;51.978;8.472;2023-03-14T08:28:28;97719.16;;;8.12;100.00
4858;BME280;58975;51.978;8.472;2023-03-14T08:33:28;97739.38;;;8.13;100.00
4858;BME280;58975;51.978;8.472;2023-03-14T08:38:25;97729.56;;;8.21;100.00
4858;BME280;58975;51.978;8.472;2023-03-14T08:43:22;97741.31;;;8.35;100.00
4858;BME280;58975;51.978;8.472;2023-03-14T08:48:19;97735.38;;;8.55;100.00
4858;BME280;58975;51.978;8.472;2023-03-14T08:53:15;97723.03;;;8.63;100.00
4858;BME280;58975;51.978;8.472;2023-03-14T08:58:12;97719.53;;;8.70;100.00
4858;BME280;58975;51.978;8.472;2023-03-14T09:03:08;97715.16;;;8.77;100.00
4858;BME280;58975;51.978;8.472;2023-03-14T09:08:05;97710.06;;;8.90;100.00
4858;BME280;58975;51.978;8.472;2023-03-14T09:13:02;97707.56;;;8.97;100.00
4858;BME280;58975;51.978;8.472;2023-03-14T09:17:58;97704.75;;;9.13;100.00
4858;BME280;58975;51.978;8.472;2023-03-14T09:22:55;97696.59;;;9.15;100.00
4858;BME280;58975;51.978;8.472;2023-03-14T09:27:51;97682.25;;;9.24;100.00
4858;BME280;58975;51.978;8.472;2023-03-14T09:32:48;97689.84;;;9.41;100.00
4858;BME280;58975;51.978;8.472;2023-03-14T09:37:44;97687.03;;;9.58;100.00
4858;BME280;58975;51.978;8.472;2023-03-14T09:42:41;97690.81;;;9.63;100.00
4858;BME280;58975;51.978;8.472;2023-03-14T09:47:39;97707.06;;;9.31;100.00
4858;BME280;58975;51.978;8.472;2023-03-14T09:52:56;97713.25;;;9.09;100.00
4858;BME280;58975;51.978;8.472;2023-03-14T09:57:58;97715.47;;;9.20;100.00
4858;BME280;58975;51.978;8.472;2023-03-14T10:03:21;97723.50;;;9.12;100.00
4858;BME280;58975;51.978;8.472;2023-03-14T10:08:18;97734.88;;;9.06;100.00
4858;BME280;58975;51.978;8.472;2023-03-14T10:18:14;97757.31;;;9.18;100.00
4858;BME280;58975;51.978;8.472;2023-03-14T10:28:46;97766.41;;;9.00;100.00
4858;BME280;58975;51.978;8.472;2023-03-14T10:33:41;97781.63;;;8.84;100.00
4858;BME280;58975;51.978;8.472;2023-03-14T10:38:38;97850.63;;;7.33;100.00
4858;BME280;58975;51.978;8.472;2023-03-14T10:43:35;97854.31;;;6.66;100.00
4858;BME280;58975;51.978;8.472;2023-03-14T10:48:37;97877.06;;;6.51;100.00
4858;BME280;58975;51.978;8.472;2023-03-14T10:53:49;97893.59;;;6.53;100.00
4858;BME280;58975;51.978;8.472;2023-03-14T10:58:57;97929.59;;;6.46;100.00
4858;BME280;58975;51.978;8.472;2023-03-14T11:14:54;97997.44;;;5.58;100.00
4858;BME280;58975;51.978;8.472;2023-03-14T11:20:10;98023.13;;;5.21;100.00
4858;BME280;58975;51.978;8.472;2023-03-14T11:25:19;98050.59;;;4.91;100.00
4858;BME280;58975;51.978;8.472;2023-03-14T11:30:44;98100.53;;;4.37;100.00
4858;BME280;58975;51.978;8.472;2023-03-14T11:41:15;98172.69;;;3.67;100.00
4858;BME280;58975;51.978;8.472;2023-03-14T11:46:21;98177.56;;;3.31;100.00
4858;BME280;58975;51.978;8.472;2023-03-14T11:51:34;98214.13;;;3.34;100.00
4858;BME280;58975;51.978;8.472;2023-03-14T11:56:53;98218.50;;;3.24;100.00
4858;BME280;58975;51.978;8.472;2023-03-14T12:01:57;98271.50;;;3.41;100.00
4858;BME280;58975;51.978;8.472;2023-03-14T12:06:56;98269.16;;;3.26;100.00
4858;BME280;58975;51.978;8.472;2023-03-14T12:12:02;98293.13;;;3.23;100.00
4858;BME280;58975;51.978;8.472;2023-03-14T12:17:17;98334.06;;;3.37;100.00
4858;BME280;58975;51.978;8.472;2023-03-14T12:22:23;98350.47;;;3.50;100.00
4858;BME280;58975;51.978;8.472;2023-03-14T12:27:43;98382.81;;;3.62;100.00
4858;BME280;58975;51.978;8.472;2023-03-14T12:32:40;98381.50;;;3.98;100.00
4858;BME280;58975;51.978;8.472;2023-03-14T12:37:42;98388.53;;;3.88;100.00
4858;BME280;58975;51.978;8.472;2023-03-14T12:42:56;98391.81;;;4.10;100.00
4858;BME280;58975;51.978;8.472;2023-03-14T12:48:00;98406.50;;;4.03;100.00
4858;BME280;58975;51.978;8.472;2023-03-14T12:53:23;98408.22;;;4.23;100.00
4858;BME280;58975;51.978;8.472;2023-03-14T12:58:48;98408.06;;;4.46;100.00
4858;BME280;58975;51.978;8.472;2023-03-14T13:03:53;98423.09;;;4.64;100.00
4858;BME280;58975;51.978;8.472;2023-03-14T13:08:51;98436.31;;;4.74;100.00
4858;BME280;58975;51.978;8.472;2023-03-14T13:13:57;98468.47;;;4.68;100.00
4858;BME280;58975;51.978;8.472;2023-03-14T13:19:02;98489.31;;;4.41;100.00
4858;BME280;58975;51.978;8.472;2023-03-14T13:24:05;98532.13;;;3.28;100.00
4858;BME280;58975;51.978;8.472;2023-03-14T13:29:30;98540.84;;;3.28;100.00
4858;BME280;58975;51.978;8.472;2023-03-14T13:34:32;98550.09;;;3.55;100.00
4858;BME280;58975;51.978;8.472;2023-03-14T13:39:31;98555.16;;;3.78;100.00
4858;BME280;58975;51.978;8.472;2023-03-14T13:44:47;98571.22;;;3.96;100.00
4858;BME280;58975;51.978;8.472;2023-03-14T13:49:44;98578.91;;;3.99;100.00
4858;BME280;58975;51.978;8.472;2023-03-14T13:54:41;98591.94;;;4.01;100.00
4858;BME280;58975;51.978;8.472;2023-03-14T13:59:37;98617.25;;;4.13;100.00
4858;BME280;58975;51.978;8.472;2023-03-14T14:04:36;98630.25;;;4.25;100.00
4858;BME280;58975;51.978;8.472;2023-03-14T14:09:38;98648.09;;;4.54;100.00
4858;BME280;58975;51.978;8.472;2023-03-14T14:14:49;98660.03;;;4.99;100.00
4858;BME280;58975;51.978;8.472;2023-03-14T14:19:47;98671.22;;;5.12;100.00
4858;BME280;58975;51.978;8.472;2023-03-14T14:24:44;98689.63;;;5.03;100.00
4858;BME280;58975;51.978;8.472;2023-03-14T14:29:41;98689.78;;;5.01;100.00
4858;BME280;58975;51.978;8.472;2023-03-14T14:34:46;98714.84;;;5.16;100.00
4858;BME280;58975;51.978;8.472;2023-03-14T14:39:46;98737.78;;;5.25;100.00
4858;BME280;58975;51.978;8.472;2023-03-14T14:44:44;98753.41;;;5.29;100.00
4858;BME280;58975;51.978;8.472;2023-03-14T14:49:41;98754.84;;;5.21;100.00
4858;BME280;58975;51.978;8.472;2023-03-14T14:54:45;98774.63;;;5.48;100.00
4858;BME280;58975;51.978;8.472;2023-03-14T14:59:42;98793.94;;;5.28;100.00
4858;BME280;58975;51.978;8.472;2023-03-14T15:04:41;98812.34;;;5.18;100.00
4858;BME280;58975;51.978;8.472;2023-03-14T15:09:42;98822.34;;;5.56;100.00
4858;BME280;58975;51.978;8.472;2023-03-14T15:14:38;98835.06;;;5.51;100.00
4858;BME280;58975;51.978;8.472;2023-03-14T15:19:35;98844.78;;;5.50;100.00
4858;BME280;58975;51.978;8.472;2023-03-14T15:24:31;98856.88;;;5.53;100.00
4858;BME280;58975;51.978;8.472;2023-03-14T15:29:28;98875.91;;;5.88;100.00
4858;BME280;58975;51.978;8.472;2023-03-14T15:34:25;98879.63;;;5.86;93.08
4858;BME280;58975;51.978;8.472;2023-03-14T15:39:23;98880.94;;;5.70;84.20
4858;BME280;58975;51.978;8.472;2023-03-14T15:44:20;98899.53;;;5.69;83.63
4858;BME280;58975;51.978;8.472;2023-03-14T15:49:16;98891.69;;;5.58;83.60
4858;BME280;58975;51.978;8.472;2023-03-14T15:54:12;98905.47;;;5.61;79.64
4858;BME280;58975;51.978;8.472;2023-03-14T15:59:09;98928.59;;;5.69;84.94
4858;BME280;58975;51.978;8.472;2023-03-14T16:04:05;98930.81;;;5.32;84.12
4858;BME280;58975;51.978;8.472;2023-03-14T16:09:02;98934.84;;;5.15;81.35
4858;BME280;58975;51.978;8.472;2023-03-14T16:14:00;98933.34;;;5.22;81.06
4858;BME280;58975;51.978;8.472;2023-03-14T16:18:56;98952.09;;;5.19;82.93
4858;BME280;58975;51.978;8.472;2023-03-14T16:23:53;98971.78;;;5.15;82.68
4858;BME280;58975;51.978;8.472;2023-03-14T16:28:49;98983.06;;;5.06;88.16
4858;BME280;58975;51.978;8.472;2023-03-14T16:33:46;98988.38;;;4.95;86.28
4858;BME280;58975;51.978;8.472;2023-03-14T16:38:43;99008.03;;;4.80;98.26
4858;BME280;58975;51.978;8.472;2023-03-14T16:43:41;99016.66;;;4.71;89.40
4858;BME280;58975;51.978;8.472;2023-03-14T16:48:37;99042.44;;;4.67;89.75
4858;BME280;58975;51.978;8.472;2023-03-14T16:53:34;99052.88;;;4.58;91.28
4858;BME280;58975;51.978;8.472;2023-03-14T16:58:30;99074.44;;;4.52;93.63
4858;BME280;58975;51.978;8.472;2023-03-14T17:03:27;99087.00;;;4.48;97.35
4858;BME280;58975;51.978;8.472;2023-03-14T17:08:24;99117.28;;;4.32;100.00
4858;BME280;58975;51.978;8.472;2023-03-14T17:13:20;99130.19;;;4.23;100.00
4858;BME280;58975;51.978;8.472;2023-03-14T17:18:24;99141.41;;;4.14;100.00
4858;BME280;58975;51.978;8.472;2023-03-14T17:23:22;99151.72;;;4.17;100.00
4858;BME280;58975;51.978;8.472;2023-03-14T17:28:20;99164.09;;;4.04;100.00
4858;BME280;58975;51.978;8.472;2023-03-14T17:33:17;99177.09;;;4.07;93.52
4858;BME280;58975;51.978;8.472;2023-03-14T17:38:13;99186.53;;;4.10;84.93
4858;BME280;58975;51.978;8.472;2023-03-14T17:43:10;99210.53;;;3.94;86.44
4858;BME280;58975;51.978;8.472;2023-03-14T17:48:06;99226.97;;;3.85;84.81
4858;BME280;58975;51.978;8.472;2023-03-14T17:53:03;99251.53;;;3.73;86.33
4858;BME280;58975;51.978;8.472;2023-03-14T17:57:59;99257.41;;;3.53;87.07
4858;BME280;58975;51.978;8.472;2023-03-14T18:02:57;99270.34;;;3.43;88.63
4858;BME280;58975;51.978;8.472;2023-03-14T18:07:54;99282.13;;;3.50;85.18
4858;BME280;58975;51.978;8.472;2023-03-14T18:12:51;99294.88;;;3.31;88.63
4858;BME280;58975;51.978;8.472;2023-03-14T18:17:47;99304.13;;;3.24;88.48
4858;BME280;58975;51.978;8.472;2023-03-14T18:22:44;99314.63;;;3.11;91.30
4858;BME280;58975;51.978;8.472;2023-03-14T18:27:40;99316.38;;;2.98;93.76
4858;BME280;58975;51.978;8.472;2023-03-14T18:32:37;99333.47;;;3.05;93.31
4858;BME280;58975;51.978;8.472;2023-03-14T18:37:34;99345.63;;;2.94;96.16
4858;BME280;58975;51.978;8.472;2023-03-14T18:42:30;99360.09;;;2.86;99.54
4858;BME280;58975;51.978;8.472;2023-03-14T18:47:27;99370.19;;;2.80;100.00
4858;BME280;58975;51.978;8.472;2023-03-14T18:52:24;99371.63;;;2.71;100.00
4858;BME280;58975;51.978;8.472;2023-03-14T18:57:20;99381.44;;;2.55;100.00
4858;BME280;58975;51.978;8.472;2023-03-14T19:02:17;99396.19;;;2.58;100.00
4858;BME280;58975;51.978;8.472;2023-03-14T19:07:13;99410.63;;;2.65;100.00
4858;BME280;58975;51.978;8.472;2023-03-14T19:12:10;99413.16;;;2.52;100.00
4858;BME280;58975;51.978;8.472;2023-03-14T19:17:07;99431.84;;;2.48;100.00
4858;BME280;58975;51.978;8.472;2023-03-14T19:22:03;99437.72;;;2.38;100.00
4858;BME280;58975;51.978;8.472;2023-03-14T19:27:00;99437.72;;;2.38;100.00
4858;BME280;58975;51.978;8.472;2023-03-14T19:31:57;99446.13;;;2.44;100.00
4858;BME280;58975;51.978;8.472;2023-03-14T19:36:53;99465.47;;;2.28;100.00
4858;BME280;58975;51.978;8.472;2023-03-14T19:41:50;99471.09;;;2.36;100.00
4858;BME280;58975;51.978;8.472;2023-03-14T19:46:52;99483.13;;;2.26;100.00
4858;BME280;58975;51.978;8.472;2023-03-14T19:51:49;99482.53;;;2.21;100.00
4858;BME280;58975;51.978;8.472;2023-03-14T19:56:46;99493.59;;;2.12;100.00
4858;BME280;58975;51.978;8.472;2023-03-14T20:01:43;99503.72;;;2.04;100.00
4858;BME280;58975;51.978;8.472;2023-03-14T20:06:43;99516.56;;;2.09;100.00
4858;BME280;58975;51.978;8.472;2023-03-14T20:11:40;99521.34;;;2.02;100.00
4858;BME280;58975;51.978;8.472;2023-03-14T20:16:38;99530.34;;;1.98;100.00
4858;BME280;58975;51.978;8.472;2023-03-14T20:21:34;99544.00;;;1.89;100.00
4858;BME280;58975;51.978;8.472;2023-03-14T20:26:32;99549.81;;;1.80;100.00
4858;BME280;58975;51.978;8.472;2023-03-14T20:31:32;99550.56;;;1.82;100.00
4858;BME280;58975;51.978;8.472;2023-03-14T20:36:29;99558.22;;;1.71;100.00
4858;BME280;58975;51.978;8.472;2023-03-14T20:41:26;99553.41;;;1.63;100.00
4858;BME280;58975;51.978;8.472;2023-03-14T20:46:22;99568.50;;;1.60;100.00
4858;BME280;58975;51.978;8.472;2023-03-14T20:51:19;99569.69;;;1.54;100.00
4858;BME280;58975;51.978;8.472;2023-03-14T20:56:16;99580.44;;;1.50;100.00
4858;BME280;58975;51.978;8.472;2023-03-14T21:01:12;99590.00;;;1.51;100.00
4858;BME280;58975;51.978;8.472;2023-03-14T21:06:10;99592.19;;;1.42;100.00
4858;BME280;58975;51.978;8.472;2023-03-14T21:11:07;99595.94;;;1.38;100.00
4858;BME280;58975;51.978;8.472;2023-03-14T21:16:04;99595.19;;;1.36;100.00
4858;BME280;58975;51.978;8.472;2023-03-14T21:21:01;99597.22;;;1.31;100.00
4858;BME280;58975;51.978;8.472;2023-03-14T21:25:57;99598.66;;;1.21;100.00
4858;BME280;58975;51.978;8.472;2023-03-14T21:30:54;99605.56;;;1.22;100.00
4858;BME280;58975;51.978;8.472;2023-03-14T21:35:51;99608.53;;;1.16;100.00
4858;BME280;58975;51.978;8.472;2023-03-14T21:40:48;99606.09;;;1.13;100.00
4858;BME280;58975;51.978;8.472;2023-03-14T21:45:46;99606.25;;;1.10;100.00
4858;BME280;58975;51.978;8.472;2023-03-14T21:50:45;99606.59;;;1.04;100.00
4858;BME280;58975;51.978;8.472;2023-03-14T21:55:42;99617.56;;;0.95;100.00
4858;BME280;58975;51.978;8.472;2023-03-14T22:00:41;99616.63;;;0.96;100.00
4858;BME280;58975;51.978;8.472;2023-03-14T22:05:40;99618.59;;;0.92;100.00
4858;BME280;58975;51.978;8.472;2023-03-14T22:10:44;99624.44;;;0.98;100.00
4858;BME280;58975;51.978;8.472;2023-03-14T22:15:45;99625.94;;;0.86;100.00
4858;BME280;58975;51.978;8.472;2023-03-14T22:20:43;99634.56;;;0.71;100.00
4858;BME280;58975;51.978;8.472;2023-03-14T22:25:45;99635.19;;;0.76;100.00
4858;BME280;58975;51.978;8.472;2023-03-14T22:30:50;99635.31;;;0.57;100.00
4858;BME280;58975;51.978;8.472;2023-03-14T22:35:50;99639.03;;;0.86;100.00
4858;BME280;58975;51.978;8.472;2023-03-14T22:40:48;99641.69;;;0.69;100.00
4858;BME280;58975;51.978;8.472;2023-03-14T22:45:44;99649.44;;;0.55;100.00
4858;BME280;58975;51.978;8.472;2023-03-14T22:50:41;99656.56;;;0.51;100.00
4858;BME280;58975;51.978;8.472;2023-03-14T22:55:37;99648.28;;;0.26;100.00
4858;BME280;58975;51.978;8.472;2023-03-14T23:00:34;99648.50;;;0.04;100.00
4858;BME280;58975;51.978;8.472;2023-03-14T23:05:30;99650.66;;;-0.04;100.00
4858;BME280;58975;51.978;8.472;2023-03-14T23:10:27;99660.06;;;0.00;100.00
4858;BME280;58975;51.978;8.472;2023-03-14T23:15:24;99650.72;;;-0.06;100.00
4858;BME280;58975;51.978;8.472;2023-03-14T23:20:21;99664.34;;;-0.16;100.00
4858;BME280;58975;51.978;8.472;2023-03-14T23:25:17;99661.50;;;0.06;100.00
4858;BME280;58975;51.978;8.472;2023-03-14T23:30:15;99673.16;;;0.00;100.00
4858;BME280;58975;51.978;8.472;2023-03-14T23:35:13;99669.91;;;-0.05;100.00
4858;BME280;58975;51.978;8.472;2023-03-14T23:40:10;99667.34;;;-0.07;100.00
4858;BME280;58975;51.978;8.472;2023-03-14T23:45:07;99672.84;;;0.06;100.00
4858;BME280;58975;51.978;8.472;2023-03-14T23:50:03;99677.22;;;0.06;100.00
4858;BME280;58975;51.978;8.472;2023-03-14T23:55:00;99687.31;;;-0.04;100.00
4858;BME280;58975;51.978;8.472;2023-03-14T23:59:56;99685.06;;;0.06;100.00
